Time;durP1;ratioP1;P1;durP2;ratioP2;P2;SDS_P1;SDS_P2;PMS_P1;PMS_P2;Temp;Humidity;BMP_temperature;BMP_pressure;BME280_temperature;BME280_humidity;BME280_pressure;Samples;Min_cycle;Max_cycle;Signal;HPM_P1;HPM_P2
2022/12/16 00:01:21;;;;;;;21.33;10.43;;;;;;;-144.32;100.00;68061.97;10323201;28;20454;-76
2022/12/16 00:06:31;;;;;;;20.92;12.00;;;;;;;-144.32;100.00;68061.97;10345004;28;20050;-77
2022/12/16 00:11:32;;;;;;;21.85;11.95;;;;;;;-144.32;100.00;68061.97;10320316;28;20569;-79
2022/12/16 00:16:34;;;;;;;18.42;10.13;;;;;;;-144.32;100.00;68061.97;10304711;28;20049;-79
2022/12/16 00:21:35;;;;;;;20.90;10.60;;;;;;;-144.32;100.00;68061.97;10298411;28;20105;-77
2022/12/16 00:26:36;;;;;;;22.55;11.68;;;;;;;-144.32;100.00;68061.97;10296057;28;20057;-77
2022/12/16 00:31:37;;;;;;;18.10;9.80;;;;;;;-144.32;100.00;68061.97;10293289;28;20572;-76
2022/12/16 00:36:37;;;;;;;22.63;11.73;;;;;;;-144.32;100.00;68061.97;10308346;28;20054;-76
2022/12/16 00:41:38;;;;;;;19.27;10.57;;;;;;;-144.32;100.00;68061.97;10293771;28;20707;-76
2022/12/16 00:46:38;;;;;;;18.73;10.65;;;;;;;-144.32;100.00;68061.97;10289334;28;20494;-76
2022/12/16 00:51:40;;;;;;;20.77;11.15;;;;;;;-144.32;100.00;68061.97;10304446;28;20100;-75
2022/12/16 00:56:41;;;;;;;18.83;10.90;;;;;;;-144.32;100.00;68061.97;10319379;28;20050;-76
2022/12/16 01:01:41;;;;;;;18.88;10.25;;;;;;;-144.32;100.00;68061.97;10292177;28;20050;-76
2022/12/16 01:06:42;;;;;;;20.50;10.82;;;;;;;-144.32;100.00;68061.97;10291014;28;20043;-77
2022/12/16 01:11:42;;;;;;;19.42;9.90;;;;;;;-144.32;100.00;68061.97;10298205;28;20046;-78
2022/12/16 01:16:43;;;;;;;21.27;10.85;;;;;;;-144.32;100.00;68061.97;10301053;28;20058;-76
2022/12/16 01:21:43;;;;;;;21.00;11.27;;;;;;;-144.32;100.00;68061.97;10294917;28;20053;-79
2022/12/16 01:26:44;;;;;;;20.95;11.10;;;;;;;-144.32;100.00;68061.97;10310728;28;20051;-78
2022/12/16 01:31:45;;;;;;;23.25;11.50;;;;;;;-144.32;100.00;68061.97;10293991;28;20494;-78
2022/12/16 01:36:45;;;;;;;23.13;11.55;;;;;;;-144.32;100.00;68061.97;10304599;28;20039;-78
2022/12/16 01:41:46;;;;;;;23.30;11.55;;;;;;;-144.32;100.00;68061.97;10312104;28;20054;-80
2022/12/16 01:46:54;;;;;;;21.45;11.95;;;;;;;-144.32;100.00;68061.97;10308364;28;20479;-79
2022/12/16 01:52:01;;;;;;;21.10;12.70;;;;;;;-144.32;100.00;68061.97;10304077;28;20141;-78
2022/12/16 01:57:11;;;;;;;31.38;12.77;;;;;;;-144.32;100.00;68061.97;10335808;28;20054;-78
2022/12/16 02:02:13;;;;;;;22.58;12.75;;;;;;;-144.32;100.00;68061.97;10336366;28;20050;-78
2022/12/16 02:07:13;;;;;;;27.95;12.95;;;;;;;-144.32;100.00;68061.97;10305370;28;20047;-78
2022/12/16 02:12:45;;;;;;;27.73;14.52;;;;;;;-144.32;100.00;68061.97;10330885;28;20027;-78
2022/12/16 02:17:53;;;;;;;25.88;14.02;;;;;;;-144.32;100.00;68061.97;10299433;28;20050;-77
2022/12/16 02:23:22;;;;;;;26.98;13.57;;;;;;;-144.32;100.00;68061.97;10298794;28;20486;-78
2022/12/16 02:28:57;;;;;;;26.17;13.25;;;;;;;-144.32;100.00;68061.97;10310990;28;20050;-78
2022/12/16 02:34:20;;;;;;;27.58;14.00;;;;;;;-144.32;100.00;68061.97;10295605;28;20043;-77
2022/12/16 02:39:28;;;;;;;28.10;13.73;;;;;;;-144.32;100.00;68061.97;10286470;28;20078;-78
2022/12/16 02:44:43;;;;;;;27.00;13.52;;;;;;;-144.32;100.00;68061.97;10309685;28;20058;-78
2022/12/16 02:49:47;;;;;;;27.05;13.90;;;;;;;-144.32;100.00;68061.97;10284184;28;20148;-78
2022/12/16 02:54:51;;;;;;;27.60;13.88;;;;;;;-144.32;100.00;68061.97;10294177;28;20038;-79
2022/12/16 03:00:13;;;;;;;25.98;13.95;;;;;;;-144.32;100.00;68061.97;10294030;28;20046;-78
2022/12/16 03:05:33;;;;;;;28.20;14.45;;;;;;;-144.32;100.00;68061.97;10317461;28;20186;-79
2022/12/16 03:10:55;;;;;;;28.65;13.95;;;;;;;-144.32;100.00;68061.97;10300965;28;20069;-78
2022/12/16 03:15:59;;;;;;;28.25;14.35;;;;;;;-144.32;100.00;68061.97;10290984;28;20046;-78
2022/12/16 03:21:04;;;;;;;28.05;13.82;;;;;;;-144.32;100.00;68061.97;10275983;28;20046;-78
2022/12/16 03:26:17;;;;;;;27.23;14.35;;;;;;;-144.32;100.00;68061.97;10295061;28;20082;-78
2022/12/16 03:31:34;;;;;;;26.80;14.32;;;;;;;-144.32;100.00;68061.97;10304402;28;20043;-78
2022/12/16 03:36:38;;;;;;;28.73;14.30;;;;;;;-144.32;100.00;68061.97;10311327;28;20058;-80
2022/12/16 03:41:39;;;;;;;26.58;13.30;;;;;;;-144.32;100.00;68061.97;10303776;28;20033;-80
2022/12/16 03:46:40;;;;;;;25.67;13.98;;;;;;;-144.32;100.00;68061.97;10307776;28;20042;-81
2022/12/16 03:51:40;;;;;;;28.00;13.75;;;;;;;-144.32;100.00;68061.97;10324020;28;20039;-81
2022/12/16 03:56:41;;;;;;;30.33;13.93;;;;;;;-144.32;100.00;68061.97;10308214;28;20043;-82
2022/12/16 04:01:42;;;;;;;27.77;14.57;;;;;;;-144.32;100.00;68061.97;10306062;28;20023;-81
2022/12/16 04:06:43;;;;;;;33.83;14.45;;;;;;;-144.32;100.00;68061.97;10298308;28;20536;-81
2022/12/16 04:27:48;;;;;;;27.48;14.70;;;;;;;-144.32;100.00;68061.97;10319959;28;20498;-79
